Arvonia, Virginia
Current Conditions -  °F | °C
As of 11:35 AM on Friday 31 Oct 2014 (Local Time) from KFVX Reporting Station
Broken Clouds Broken Clouds  
Wind Chill: 55°   Ceiling: 6000
Heat Index: 55°   Visibility: 10mi
Dew Point: 39°   Wind: 0mph
Humidity: 54%   Direction: NA
Pressure: 29.93"   Gusts: NA
Location:  37.68°N, 78.34°W
Report Text: KFVX 311535Z AUTO 00000KT 10SM BKN060 13/04 A2993 RMK AO2
Loading
Personal Weather Stations






























Interactive Weather Map
Tropical Storm Tracking
New forecast layout! Learn more

10-Day Weather Forecast

Advertisements
Track Severe Weather on mobile